YSP weather

Marathon Airport
Marathon, Ontario, Canada

Public forecast

Using degrees Celsius for public forecast. Weather courtesy of forecast.io.

Current aviation weather report (METAR) for Marathon Airport

Report is more than 2 hours old.

Retrieved 2019/10/16 21:00 UTC (3 hours ago):

CYSP 162100Z 35012G17KT 330V040 15SM BKN025 BKN033 07/00 A2989 RMK SC5SC2 LAST STFD OBS/NEXT 171200UTC SLP134

Aviation forecast (TAF) for Marathon Airport

Forecast is more than 6 hours old.

Retrieved 2019/10/16 14:00 UTC (10 hours ago):

TAF CYSP 161338Z 1614/1621 02008G18KT P6SM FEW015 BKN040 TEMPO 1614/1621 BKN015 OVC040 RMK NXT FCST WILL BE ISSUED AT 171345Z